sensor_id;sensor_type;location;lat;lon;timestamp;P1;durP1;ratioP1;P2;durP2;ratioP2
32705;SDS011;19094;50.972;3.538;2022-11-23T00:00:03;12.93;;;3.15;;
32705;SDS011;19094;50.972;3.538;2022-11-23T00:02:29;10.98;;;2.30;;
32705;SDS011;19094;50.972;3.538;2022-11-23T00:04:55;10.15;;;2.45;;
32705;SDS011;19094;50.972;3.538;2022-11-23T00:07:20;8.50;;;2.63;;
32705;SDS011;19094;50.972;3.538;2022-11-23T00:09:46;8.82;;;2.30;;
32705;SDS011;19094;50.972;3.538;2022-11-23T00:12:12;6.53;;;2.85;;
32705;SDS011;19094;50.972;3.538;2022-11-23T00:14:37;8.25;;;2.40;;
32705;SDS011;19094;50.972;3.538;2022-11-23T00:17:03;8.13;;;2.58;;
32705;SDS011;19094;50.972;3.538;2022-11-23T00:19:28;11.25;;;2.95;;
32705;SDS011;19094;50.972;3.538;2022-11-23T00:21:55;6.03;;;2.47;;
32705;SDS011;19094;50.972;3.538;2022-11-23T00:24:21;11.10;;;2.95;;
32705;SDS011;19094;50.972;3.538;2022-11-23T00:26:48;11.15;;;2.97;;
32705;SDS011;19094;50.972;3.538;2022-11-23T00:29:16;9.07;;;2.95;;
32705;SDS011;19094;50.972;3.538;2022-11-23T00:31:45;14.23;;;2.40;;
32705;SDS011;19094;50.972;3.538;2022-11-23T00:34:12;17.75;;;3.17;;
32705;SDS011;19094;50.972;3.538;2022-11-23T00:36:41;13.07;;;3.35;;
32705;SDS011;19094;50.972;3.538;2022-11-23T00:39:06;13.82;;;3.08;;
32705;SDS011;19094;50.972;3.538;2022-11-23T00:41:32;13.20;;;3.92;;
32705;SDS011;19094;50.972;3.538;2022-11-23T00:43:57;13.65;;;2.80;;
32705;SDS011;19094;50.972;3.538;2022-11-23T00:46:25;17.40;;;3.65;;
32705;SDS011;19094;50.972;3.538;2022-11-23T00:48:52;8.65;;;2.55;;
32705;SDS011;19094;50.972;3.538;2022-11-23T00:51:20;15.25;;;3.38;;
32705;SDS011;19094;50.972;3.538;2022-11-23T00:53:49;11.65;;;2.78;;
32705;SDS011;19094;50.972;3.538;2022-11-23T00:56:16;15.55;;;2.58;;
32705;SDS011;19094;50.972;3.538;2022-11-23T00:58:46;16.60;;;2.75;;
32705;SDS011;19094;50.972;3.538;2022-11-23T01:01:15;16.30;;;3.72;;
32705;SDS011;19094;50.972;3.538;2022-11-23T01:03:44;16.25;;;3.42;;
32705;SDS011;19094;50.972;3.538;2022-11-23T01:06:13;13.90;;;3.15;;
32705;SDS011;19094;50.972;3.538;2022-11-23T01:08:46;14.15;;;2.70;;
32705;SDS011;19094;50.972;3.538;2022-11-23T01:11:23;12.77;;;2.88;;
32705;SDS011;19094;50.972;3.538;2022-11-23T01:13:51;10.93;;;2.83;;
32705;SDS011;19094;50.972;3.538;2022-11-23T01:16:18;12.75;;;2.70;;
32705;SDS011;19094;50.972;3.538;2022-11-23T01:18:57;27.48;;;3.72;;
32705;SDS011;19094;50.972;3.538;2022-11-23T01:21:25;13.82;;;3.03;;
32705;SDS011;19094;50.972;3.538;2022-11-23T01:23:52;17.38;;;3.85;;
32705;SDS011;19094;50.972;3.538;2022-11-23T01:26:19;13.65;;;2.95;;
32705;SDS011;19094;50.972;3.538;2022-11-23T01:28:45;15.13;;;3.20;;
32705;SDS011;19094;50.972;3.538;2022-11-23T01:31:13;19.20;;;3.17;;
32705;SDS011;19094;50.972;3.538;2022-11-23T01:33:41;19.73;;;3.22;;
32705;SDS011;19094;50.972;3.538;2022-11-23T01:36:08;21.60;;;3.53;;
32705;SDS011;19094;50.972;3.538;2022-11-23T01:38:39;16.42;;;2.90;;
32705;SDS011;19094;50.972;3.538;2022-11-23T01:41:06;15.60;;;3.03;;
32705;SDS011;19094;50.972;3.538;2022-11-23T01:43:35;15.80;;;2.88;;
32705;SDS011;19094;50.972;3.538;2022-11-23T01:46:04;12.55;;;2.75;;
32705;SDS011;19094;50.972;3.538;2022-11-23T01:48:38;8.95;;;2.53;;
32705;SDS011;19094;50.972;3.538;2022-11-23T01:51:28;21.85;;;3.50;;
32705;SDS011;19094;50.972;3.538;2022-11-23T01:53:59;20.65;;;2.75;;
32705;SDS011;19094;50.972;3.538;2022-11-23T01:56:32;14.57;;;2.90;;
32705;SDS011;19094;50.972;3.538;2022-11-23T01:59:03;19.88;;;3.10;;
32705;SDS011;19094;50.972;3.538;2022-11-23T02:01:34;17.95;;;2.58;;
32705;SDS011;19094;50.972;3.538;2022-11-23T02:04:01;18.35;;;2.45;;
32705;SDS011;19094;50.972;3.538;2022-11-23T02:06:27;17.75;;;2.65;;
32705;SDS011;19094;50.972;3.538;2022-11-23T02:08:55;15.10;;;2.78;;
32705;SDS011;19094;50.972;3.538;2022-11-23T02:11:23;20.65;;;3.40;;
32705;SDS011;19094;50.972;3.538;2022-11-23T02:13:50;24.35;;;3.33;;
32705;SDS011;19094;50.972;3.538;2022-11-23T02:16:16;16.73;;;2.50;;
32705;SDS011;19094;50.972;3.538;2022-11-23T02:18:43;10.90;;;2.72;;
32705;SDS011;19094;50.972;3.538;2022-11-23T02:21:12;24.77;;;3.45;;
32705;SDS011;19094;50.972;3.538;2022-11-23T02:31:42;14.45;;;2.70;;
32705;SDS011;19094;50.972;3.538;2022-11-23T02:34:07;15.35;;;2.30;;
32705;SDS011;19094;50.972;3.538;2022-11-23T02:36:44;13.18;;;2.47;;
32705;SDS011;19094;50.972;3.538;2022-11-23T02:39:21;17.45;;;2.55;;
32705;SDS011;19094;50.972;3.538;2022-11-23T02:42:04;19.38;;;2.38;;
32705;SDS011;19094;50.972;3.538;2022-11-23T02:45:05;14.77;;;2.47;;
32705;SDS011;19094;50.972;3.538;2022-11-23T02:47:44;15.68;;;2.63;;
32705;SDS011;19094;50.972;3.538;2022-11-23T02:50:13;14.23;;;2.28;;
32705;SDS011;19094;50.972;3.538;2022-11-23T02:52:39;16.50;;;2.67;;
32705;SDS011;19094;50.972;3.538;2022-11-23T02:55:04;19.58;;;2.67;;
32705;SDS011;19094;50.972;3.538;2022-11-23T02:57:34;15.98;;;2.28;;
32705;SDS011;19094;50.972;3.538;2022-11-23T02:59:59;9.88;;;2.33;;
32705;SDS011;19094;50.972;3.538;2022-11-23T03:02:25;12.15;;;2.05;;
32705;SDS011;19094;50.972;3.538;2022-11-23T03:04:50;13.55;;;3.15;;
32705;SDS011;19094;50.972;3.538;2022-11-23T03:07:16;17.08;;;2.65;;
32705;SDS011;19094;50.972;3.538;2022-11-23T03:09:42;24.95;;;3.00;;
32705;SDS011;19094;50.972;3.538;2022-11-23T03:12:07;18.52;;;3.22;;
32705;SDS011;19094;50.972;3.538;2022-11-23T03:14:33;17.52;;;2.88;;
32705;SDS011;19094;50.972;3.538;2022-11-23T03:17:11;20.10;;;2.60;;
32705;SDS011;19094;50.972;3.538;2022-11-23T03:19:37;16.08;;;3.22;;
32705;SDS011;19094;50.972;3.538;2022-11-23T03:22:03;26.48;;;3.70;;
32705;SDS011;19094;50.972;3.538;2022-11-23T03:24:28;15.75;;;2.92;;
32705;SDS011;19094;50.972;3.538;2022-11-23T03:26:54;14.77;;;2.63;;
32705;SDS011;19094;50.972;3.538;2022-11-23T03:29:20;16.95;;;2.50;;
32705;SDS011;19094;50.972;3.538;2022-11-23T03:31:50;20.25;;;2.80;;
32705;SDS011;19094;50.972;3.538;2022-11-23T03:34:16;22.75;;;2.75;;
32705;SDS011;19094;50.972;3.538;2022-11-23T03:36:42;20.90;;;2.75;;
32705;SDS011;19094;50.972;3.538;2022-11-23T03:39:09;13.55;;;2.30;;
32705;SDS011;19094;50.972;3.538;2022-11-23T03:41:36;11.80;;;2.90;;
32705;SDS011;19094;50.972;3.538;2022-11-23T03:44:02;20.63;;;2.90;;
32705;SDS011;19094;50.972;3.538;2022-11-23T03:46:28;15.35;;;2.72;;
32705;SDS011;19094;50.972;3.538;2022-11-23T03:48:54;22.33;;;3.63;;
32705;SDS011;19094;50.972;3.538;2022-11-23T03:51:20;23.63;;;3.33;;
32705;SDS011;19094;50.972;3.538;2022-11-23T03:53:46;16.80;;;3.03;;
32705;SDS011;19094;50.972;3.538;2022-11-23T03:56:11;20.67;;;2.75;;
32705;SDS011;19094;50.972;3.538;2022-11-23T03:58:37;17.80;;;2.60;;
32705;SDS011;19094;50.972;3.538;2022-11-23T04:01:03;20.30;;;3.17;;
32705;SDS011;19094;50.972;3.538;2022-11-23T04:03:29;21.83;;;3.22;;
32705;SDS011;19094;50.972;3.538;2022-11-23T04:05:55;12.98;;;2.38;;
32705;SDS011;19094;50.972;3.538;2022-11-23T04:08:20;19.27;;;3.70;;
32705;SDS011;19094;50.972;3.538;2022-11-23T04:10:46;25.30;;;3.78;;
32705;SDS011;19094;50.972;3.538;2022-11-23T04:13:12;19.67;;;2.65;;
32705;SDS011;19094;50.972;3.538;2022-11-23T04:15:39;24.00;;;3.25;;
32705;SDS011;19094;50.972;3.538;2022-11-23T04:18:05;18.85;;;2.85;;
32705;SDS011;19094;50.972;3.538;2022-11-23T04:20:31;12.30;;;2.53;;
32705;SDS011;19094;50.972;3.538;2022-11-23T04:22:56;14.38;;;2.40;;
32705;SDS011;19094;50.972;3.538;2022-11-23T04:25:22;19.05;;;3.20;;
32705;SDS011;19094;50.972;3.538;2022-11-23T04:27:48;15.00;;;3.22;;
32705;SDS011;19094;50.972;3.538;2022-11-23T04:30:13;11.65;;;3.03;;
32705;SDS011;19094;50.972;3.538;2022-11-23T04:32:43;20.17;;;2.95;;
32705;SDS011;19094;50.972;3.538;2022-11-23T04:35:09;20.48;;;3.20;;
32705;SDS011;19094;50.972;3.538;2022-11-23T04:37:36;14.13;;;2.75;;
32705;SDS011;19094;50.972;3.538;2022-11-23T04:40:04;15.25;;;2.90;;
32705;SDS011;19094;50.972;3.538;2022-11-23T04:42:32;18.90;;;2.92;;
32705;SDS011;19094;50.972;3.538;2022-11-23T04:44:58;17.45;;;3.10;;
32705;SDS011;19094;50.972;3.538;2022-11-23T04:47:25;16.67;;;2.67;;
32705;SDS011;19094;50.972;3.538;2022-11-23T04:49:52;27.33;;;3.42;;
32705;SDS011;19094;50.972;3.538;2022-11-23T04:52:19;19.08;;;3.47;;
32705;SDS011;19094;50.972;3.538;2022-11-23T04:54:44;28.75;;;3.28;;
32705;SDS011;19094;50.972;3.538;2022-11-23T04:57:11;26.17;;;3.67;;
32705;SDS011;19094;50.972;3.538;2022-11-23T04:59:36;17.20;;;3.15;;
32705;SDS011;19094;50.972;3.538;2022-11-23T05:02:02;9.43;;;2.63;;
32705;SDS011;19094;50.972;3.538;2022-11-23T05:04:27;18.25;;;3.33;;
32705;SDS011;19094;50.972;3.538;2022-11-23T05:06:55;16.75;;;3.50;;
32705;SDS011;19094;50.972;3.538;2022-11-23T05:09:20;21.52;;;3.55;;
32705;SDS011;19094;50.972;3.538;2022-11-23T05:11:48;20.77;;;3.70;;
32705;SDS011;19094;50.972;3.538;2022-11-23T05:14:15;21.00;;;2.50;;
32705;SDS011;19094;50.972;3.538;2022-11-23T05:16:40;16.75;;;3.30;;
32705;SDS011;19094;50.972;3.538;2022-11-23T05:19:06;20.15;;;2.80;;
32705;SDS011;19094;50.972;3.538;2022-11-23T05:21:32;15.98;;;2.90;;
32705;SDS011;19094;50.972;3.538;2022-11-23T05:23:59;16.13;;;2.67;;
32705;SDS011;19094;50.972;3.538;2022-11-23T05:26:24;16.55;;;2.85;;
32705;SDS011;19094;50.972;3.538;2022-11-23T05:28:50;16.80;;;3.08;;
32705;SDS011;19094;50.972;3.538;2022-11-23T05:31:16;18.02;;;3.13;;
32705;SDS011;19094;50.972;3.538;2022-11-23T05:33:41;23.58;;;3.75;;
32705;SDS011;19094;50.972;3.538;2022-11-23T05:36:10;20.80;;;3.45;;
32705;SDS011;19094;50.972;3.538;2022-11-23T05:38:38;21.20;;;3.85;;
32705;SDS011;19094;50.972;3.538;2022-11-23T05:41:04;15.73;;;3.45;;
32705;SDS011;19094;50.972;3.538;2022-11-23T05:43:32;23.83;;;3.42;;
32705;SDS011;19094;50.972;3.538;2022-11-23T05:45:59;21.13;;;4.05;;
32705;SDS011;19094;50.972;3.538;2022-11-23T05:48:26;23.75;;;3.60;;
32705;SDS011;19094;50.972;3.538;2022-11-23T05:50:53;22.95;;;4.03;;
32705;SDS011;19094;50.972;3.538;2022-11-23T05:53:18;21.33;;;3.88;;
32705;SDS011;19094;50.972;3.538;2022-11-23T05:55:44;26.55;;;4.53;;
32705;SDS011;19094;50.972;3.538;2022-11-23T05:58:10;24.60;;;4.28;;
32705;SDS011;19094;50.972;3.538;2022-11-23T06:00:38;21.85;;;4.20;;
32705;SDS011;19094;50.972;3.538;2022-11-23T06:03:03;22.52;;;4.82;;
32705;SDS011;19094;50.972;3.538;2022-11-23T06:05:31;27.13;;;5.28;;
32705;SDS011;19094;50.972;3.538;2022-11-23T06:07:56;26.20;;;5.18;;
32705;SDS011;19094;50.972;3.538;2022-11-23T06:10:23;16.23;;;4.40;;
32705;SDS011;19094;50.972;3.538;2022-11-23T06:12:49;21.08;;;4.18;;
32705;SDS011;19094;50.972;3.538;2022-11-23T06:15:16;21.50;;;3.83;;
32705;SDS011;19094;50.972;3.538;2022-11-23T06:17:43;27.08;;;4.82;;
32705;SDS011;19094;50.972;3.538;2022-11-23T06:20:09;14.52;;;3.58;;
32705;SDS011;19094;50.972;3.538;2022-11-23T06:22:35;14.10;;;4.13;;
32705;SDS011;19094;50.972;3.538;2022-11-23T06:25:00;18.35;;;4.25;;
32705;SDS011;19094;50.972;3.538;2022-11-23T06:27:27;20.58;;;3.97;;
32705;SDS011;19094;50.972;3.538;2022-11-23T06:29:54;19.48;;;3.80;;
32705;SDS011;19094;50.972;3.538;2022-11-23T06:32:19;13.98;;;3.53;;
32705;SDS011;19094;50.972;3.538;2022-11-23T06:34:45;22.00;;;3.33;;
32705;SDS011;19094;50.972;3.538;2022-11-23T06:37:11;17.55;;;3.38;;
32705;SDS011;19094;50.972;3.538;2022-11-23T06:39:37;25.27;;;5.10;;
32705;SDS011;19094;50.972;3.538;2022-11-23T06:42:05;32.97;;;4.97;;
32705;SDS011;19094;50.972;3.538;2022-11-23T06:44:33;17.60;;;4.20;;
32705;SDS011;19094;50.972;3.538;2022-11-23T06:46:58;21.58;;;5.18;;
32705;SDS011;19094;50.972;3.538;2022-11-23T06:49:24;22.05;;;4.53;;
32705;SDS011;19094;50.972;3.538;2022-11-23T06:51:50;21.67;;;4.07;;
32705;SDS011;19094;50.972;3.538;2022-11-23T06:54:16;26.92;;;4.53;;
32705;SDS011;19094;50.972;3.538;2022-11-23T06:56:41;23.75;;;4.82;;
32705;SDS011;19094;50.972;3.538;2022-11-23T06:59:07;29.55;;;4.78;;
32705;SDS011;19094;50.972;3.538;2022-11-23T07:01:34;24.63;;;4.57;;
32705;SDS011;19094;50.972;3.538;2022-11-23T07:03:59;20.60;;;4.63;;
32705;SDS011;19094;50.972;3.538;2022-11-23T07:06:25;21.65;;;4.97;;
32705;SDS011;19094;50.972;3.538;2022-11-23T07:08:53;21.48;;;3.70;;
32705;SDS011;19094;50.972;3.538;2022-11-23T07:11:19;42.20;;;13.95;;
32705;SDS011;19094;50.972;3.538;2022-11-23T07:13:45;24.38;;;9.15;;
32705;SDS011;19094;50.972;3.538;2022-11-23T07:16:13;15.43;;;4.22;;
32705;SDS011;19094;50.972;3.538;2022-11-23T07:18:40;22.50;;;5.70;;
32705;SDS011;19094;50.972;3.538;2022-11-23T07:21:06;24.00;;;4.45;;
32705;SDS011;19094;50.972;3.538;2022-11-23T07:23:32;22.77;;;5.55;;
32705;SDS011;19094;50.972;3.538;2022-11-23T07:25:59;23.23;;;5.10;;
32705;SDS011;19094;50.972;3.538;2022-11-23T07:28:26;19.77;;;6.20;;
32705;SDS011;19094;50.972;3.538;2022-11-23T07:30:52;13.45;;;4.80;;
32705;SDS011;19094;50.972;3.538;2022-11-23T07:33:20;19.73;;;6.25;;
32705;SDS011;19094;50.972;3.538;2022-11-23T07:35:48;17.40;;;5.30;;
32705;SDS011;19094;50.972;3.538;2022-11-23T07:38:13;19.20;;;5.90;;
32705;SDS011;19094;50.972;3.538;2022-11-23T07:40:39;29.35;;;6.20;;
32705;SDS011;19094;50.972;3.538;2022-11-23T07:43:06;22.02;;;6.70;;
32705;SDS011;19094;50.972;3.538;2022-11-23T07:45:33;21.98;;;5.90;;
32705;SDS011;19094;50.972;3.538;2022-11-23T07:48:04;24.48;;;7.03;;
32705;SDS011;19094;50.972;3.538;2022-11-23T07:50:33;24.05;;;6.68;;
32705;SDS011;19094;50.972;3.538;2022-11-23T07:53:03;25.77;;;7.35;;
32705;SDS011;19094;50.972;3.538;2022-11-23T07:55:31;20.98;;;5.43;;
32705;SDS011;19094;50.972;3.538;2022-11-23T07:57:57;17.10;;;5.03;;
32705;SDS011;19094;50.972;3.538;2022-11-23T08:00:23;13.50;;;4.60;;
32705;SDS011;19094;50.972;3.538;2022-11-23T08:02:53;19.48;;;5.45;;
32705;SDS011;19094;50.972;3.538;2022-11-23T08:05:18;17.25;;;4.63;;
32705;SDS011;19094;50.972;3.538;2022-11-23T08:07:44;22.85;;;4.85;;
32705;SDS011;19094;50.972;3.538;2022-11-23T08:10:10;24.30;;;5.10;;
32705;SDS011;19094;50.972;3.538;2022-11-23T08:12:37;12.15;;;3.72;;
32705;SDS011;19094;50.972;3.538;2022-11-23T08:15:03;22.40;;;4.07;;
32705;SDS011;19094;50.972;3.538;2022-11-23T08:17:30;16.85;;;3.75;;
32705;SDS011;19094;50.972;3.538;2022-11-23T08:19:56;14.43;;;4.25;;
32705;SDS011;19094;50.972;3.538;2022-11-23T08:22:22;22.60;;;4.45;;
32705;SDS011;19094;50.972;3.538;2022-11-23T08:24:48;12.60;;;3.90;;
32705;SDS011;19094;50.972;3.538;2022-11-23T08:27:15;21.45;;;4.07;;
32705;SDS011;19094;50.972;3.538;2022-11-23T08:29:41;20.95;;;4.40;;
32705;SDS011;19094;50.972;3.538;2022-11-23T08:32:07;18.88;;;3.47;;
32705;SDS011;19094;50.972;3.538;2022-11-23T08:34:34;14.27;;;3.78;;
32705;SDS011;19094;50.972;3.538;2022-11-23T08:37:03;17.60;;;4.35;;
32705;SDS011;19094;50.972;3.538;2022-11-23T08:39:29;18.85;;;4.63;;
32705;SDS011;19094;50.972;3.538;2022-11-23T08:41:56;17.55;;;4.10;;
32705;SDS011;19094;50.972;3.538;2022-11-23T08:44:23;21.98;;;4.35;;
32705;SDS011;19094;50.972;3.538;2022-11-23T08:46:49;18.27;;;4.43;;
32705;SDS011;19094;50.972;3.538;2022-11-23T08:49:14;18.65;;;4.50;;
32705;SDS011;19094;50.972;3.538;2022-11-23T08:51:40;20.77;;;4.07;;
32705;SDS011;19094;50.972;3.538;2022-11-23T08:54:06;14.18;;;4.00;;
32705;SDS011;19094;50.972;3.538;2022-11-23T08:56:31;19.63;;;3.72;;
32705;SDS011;19094;50.972;3.538;2022-11-23T08:58:57;14.75;;;3.85;;
32705;SDS011;19094;50.972;3.538;2022-11-23T09:01:23;19.60;;;3.50;;
32705;SDS011;19094;50.972;3.538;2022-11-23T09:03:48;16.25;;;3.90;;
32705;SDS011;19094;50.972;3.538;2022-11-23T09:06:14;18.10;;;3.53;;
32705;SDS011;19094;50.972;3.538;2022-11-23T09:08:40;21.38;;;5.78;;
32705;SDS011;19094;50.972;3.538;2022-11-23T09:11:06;10.55;;;3.60;;
32705;SDS011;19094;50.972;3.538;2022-11-23T09:13:36;20.98;;;4.10;;
32705;SDS011;19094;50.972;3.538;2022-11-23T09:16:03;19.63;;;3.97;;
32705;SDS011;19094;50.972;3.538;2022-11-23T09:18:30;16.95;;;3.85;;
32705;SDS011;19094;50.972;3.538;2022-11-23T09:21:01;19.02;;;2.90;;
32705;SDS011;19094;50.972;3.538;2022-11-23T09:23:30;18.17;;;3.38;;
32705;SDS011;19094;50.972;3.538;2022-11-23T09:26:00;16.17;;;2.97;;
32705;SDS011;19094;50.972;3.538;2022-11-23T09:28:26;22.17;;;4.38;;
32705;SDS011;19094;50.972;3.538;2022-11-23T09:30:53;26.38;;;3.70;;
32705;SDS011;19094;50.972;3.538;2022-11-23T09:33:20;18.02;;;4.10;;
32705;SDS011;19094;50.972;3.538;2022-11-23T09:35:57;19.65;;;4.13;;
32705;SDS011;19094;50.972;3.538;2022-11-23T09:38:26;14.10;;;2.70;;
32705;SDS011;19094;50.972;3.538;2022-11-23T09:40:55;12.93;;;2.95;;
32705;SDS011;19094;50.972;3.538;2022-11-23T09:43:50;14.32;;;3.45;;
32705;SDS011;19094;50.972;3.538;2022-11-23T09:51:45;12.35;;;2.72;;
32705;SDS011;19094;50.972;3.538;2022-11-23T09:54:33;15.75;;;3.92;;
32705;SDS011;19094;50.972;3.538;2022-11-23T09:57:02;14.55;;;4.45;;
32705;SDS011;19094;50.972;3.538;2022-11-23T10:01:54;14.05;;;3.60;;
32705;SDS011;19094;50.972;3.538;2022-11-23T10:04:24;15.77;;;3.35;;
32705;SDS011;19094;50.972;3.538;2022-11-23T10:06:55;12.98;;;3.10;;
32705;SDS011;19094;50.972;3.538;2022-11-23T10:09:35;16.90;;;4.03;;
32705;SDS011;19094;50.972;3.538;2022-11-23T10:15:12;15.43;;;3.63;;
32705;SDS011;19094;50.972;3.538;2022-11-23T10:18:33;13.13;;;2.78;;
32705;SDS011;19094;50.972;3.538;2022-11-23T10:20:50;19.42;;;3.35;;
32705;SDS011;19094;50.972;3.538;2022-11-23T10:25:55;14.80;;;3.40;;
32705;SDS011;19094;50.972;3.538;2022-11-23T10:28:26;14.45;;;3.17;;
32705;SDS011;19094;50.972;3.538;2022-11-23T10:31:01;15.88;;;3.05;;
32705;SDS011;19094;50.972;3.538;2022-11-23T10:33:54;12.82;;;3.03;;
32705;SDS011;19094;50.972;3.538;2022-11-23T10:36:34;11.32;;;3.10;;
32705;SDS011;19094;50.972;3.538;2022-11-23T10:39:00;13.20;;;2.30;;
32705;SDS011;19094;50.972;3.538;2022-11-23T10:46:50;13.95;;;2.85;;
32705;SDS011;19094;50.972;3.538;2022-11-23T10:49:17;16.80;;;3.33;;
32705;SDS011;19094;50.972;3.538;2022-11-23T10:51:53;14.55;;;3.88;;
32705;SDS011;19094;50.972;3.538;2022-11-23T10:57:00;8.75;;;2.70;;
32705;SDS011;19094;50.972;3.538;2022-11-23T10:59:48;13.25;;;2.83;;
32705;SDS011;19094;50.972;3.538;2022-11-23T11:02:23;13.23;;;3.13;;
32705;SDS011;19094;50.972;3.538;2022-11-23T11:04:49;9.68;;;2.63;;
32705;SDS011;19094;50.972;3.538;2022-11-23T11:07:26;8.50;;;3.08;;
32705;SDS011;19094;50.972;3.538;2022-11-23T11:10:00;8.40;;;3.15;;
32705;SDS011;19094;50.972;3.538;2022-11-23T11:12:28;16.60;;;3.97;;
32705;SDS011;19094;50.972;3.538;2022-11-23T11:17:34;14.07;;;2.97;;
32705;SDS011;19094;50.972;3.538;2022-11-23T11:20:23;8.40;;;2.45;;
32705;SDS011;19094;50.972;3.538;2022-11-23T11:23:01;12.48;;;2.92;;
32705;SDS011;19094;50.972;3.538;2022-11-23T11:25:47;13.60;;;2.72;;
32705;SDS011;19094;50.972;3.538;2022-11-23T11:28:23;17.83;;;3.55;;
32705;SDS011;19094;50.972;3.538;2022-11-23T11:36:58;9.95;;;2.72;;
32705;SDS011;19094;50.972;3.538;2022-11-23T11:39:50;9.48;;;3.00;;
32705;SDS011;19094;50.972;3.538;2022-11-23T11:42:43;9.63;;;2.97;;
32705;SDS011;19094;50.972;3.538;2022-11-23T11:45:19;11.30;;;2.88;;
32705;SDS011;19094;50.972;3.538;2022-11-23T11:47:56;10.15;;;3.30;;
32705;SDS011;19094;50.972;3.538;2022-11-23T11:53:36;8.75;;;3.28;;
32705;SDS011;19094;50.972;3.538;2022-11-23T11:58:38;10.68;;;2.90;;
32705;SDS011;19094;50.972;3.538;2022-11-23T12:01:25;17.00;;;3.33;;
32705;SDS011;19094;50.972;3.538;2022-11-23T12:03:53;12.13;;;2.95;;
32705;SDS011;19094;50.972;3.538;2022-11-23T12:06:28;10.93;;;2.72;;
32705;SDS011;19094;50.972;3.538;2022-11-23T12:09:23;8.60;;;2.58;;
32705;SDS011;19094;50.972;3.538;2022-11-23T12:11:56;10.65;;;2.20;;
32705;SDS011;19094;50.972;3.538;2022-11-23T12:14:22;7.80;;;2.90;;
32705;SDS011;19094;50.972;3.538;2022-11-23T12:17:04;10.38;;;3.30;;
32705;SDS011;19094;50.972;3.538;2022-11-23T12:19:51;5.60;;;2.60;;
32705;SDS011;19094;50.972;3.538;2022-11-23T12:25:35;8.73;;;3.00;;
32705;SDS011;19094;50.972;3.538;2022-11-23T12:28:14;9.38;;;2.83;;
32705;SDS011;19094;50.972;3.538;2022-11-23T12:36:29;22.08;;;9.35;;
32705;SDS011;19094;50.972;3.538;2022-11-23T12:39:04;7.35;;;4.28;;
32705;SDS011;19094;50.972;3.538;2022-11-23T12:45:17;4.75;;;2.58;;
32705;SDS011;19094;50.972;3.538;2022-11-23T12:48:09;8.25;;;3.50;;
32705;SDS011;19094;50.972;3.538;2022-11-23T12:54:08;9.57;;;3.13;;
32705;SDS011;19094;50.972;3.538;2022-11-23T12:57:02;12.98;;;3.00;;
32705;SDS011;19094;50.972;3.538;2022-11-23T12:59:56;6.75;;;3.00;;
32705;SDS011;19094;50.972;3.538;2022-11-23T13:13:44;5.75;;;2.70;;
32705;SDS011;19094;50.972;3.538;2022-11-23T13:16:46;6.20;;;2.25;;
32705;SDS011;19094;50.972;3.538;2022-11-23T13:19:51;8.63;;;3.80;;
32705;SDS011;19094;50.972;3.538;2022-11-23T13:22:28;6.97;;;3.10;;
32705;SDS011;19094;50.972;3.538;2022-11-23T13:30:24;5.55;;;2.08;;
32705;SDS011;19094;50.972;3.538;2022-11-23T13:36:03;7.82;;;2.25;;
32705;SDS011;19094;50.972;3.538;2022-11-23T13:38:39;5.00;;;2.20;;
32705;SDS011;19094;50.972;3.538;2022-11-23T13:44:09;10.07;;;2.83;;
32705;SDS011;19094;50.972;3.538;2022-11-23T13:47:19;4.65;;;1.92;;
32705;SDS011;19094;50.972;3.538;2022-11-23T13:49:49;7.72;;;2.30;;
32705;SDS011;19094;50.972;3.538;2022-11-23T13:54:58;3.25;;;1.77;;
32705;SDS011;19094;50.972;3.538;2022-11-23T13:57:44;7.60;;;2.17;;
32705;SDS011;19094;50.972;3.538;2022-11-23T14:11:36;4.47;;;1.95;;
32705;SDS011;19094;50.972;3.538;2022-11-23T14:14:21;2.70;;;1.83;;
32705;SDS011;19094;50.972;3.538;2022-11-23T14:22:37;5.07;;;1.80;;
32705;SDS011;19094;50.972;3.538;2022-11-23T14:40:05;8.18;;;2.45;;
32705;SDS011;19094;50.972;3.538;2022-11-23T14:42:53;9.93;;;2.80;;
32705;SDS011;19094;50.972;3.538;2022-11-23T14:45:26;4.80;;;2.28;;
32705;SDS011;19094;50.972;3.538;2022-11-23T14:47:56;7.72;;;3.65;;
32705;SDS011;19094;50.972;3.538;2022-11-23T14:50:42;9.57;;;2.75;;
32705;SDS011;19094;50.972;3.538;2022-11-23T14:53:08;6.10;;;3.28;;
32705;SDS011;19094;50.972;3.538;2022-11-23T14:55:35;5.85;;;3.08;;
32705;SDS011;19094;50.972;3.538;2022-11-23T14:58:03;11.30;;;3.30;;
32705;SDS011;19094;50.972;3.538;2022-11-23T15:00:40;8.05;;;2.75;;
32705;SDS011;19094;50.972;3.538;2022-11-23T15:03:14;6.97;;;2.63;;
32705;SDS011;19094;50.972;3.538;2022-11-23T15:05:47;5.03;;;2.13;;
32705;SDS011;19094;50.972;3.538;2022-11-23T15:08:18;4.88;;;2.30;;
32705;SDS011;19094;50.972;3.538;2022-11-23T15:11:00;6.57;;;2.20;;
32705;SDS011;19094;50.972;3.538;2022-11-23T15:13:31;9.02;;;2.97;;
32705;SDS011;19094;50.972;3.538;2022-11-23T15:16:28;6.63;;;2.58;;
32705;SDS011;19094;50.972;3.538;2022-11-23T15:19:25;5.70;;;2.85;;
32705;SDS011;19094;50.972;3.538;2022-11-23T15:21:54;9.32;;;3.17;;
32705;SDS011;19094;50.972;3.538;2022-11-23T15:24:21;17.38;;;2.90;;
32705;SDS011;19094;50.972;3.538;2022-11-23T15:26:49;10.52;;;3.22;;
32705;SDS011;19094;50.972;3.538;2022-11-23T15:29:31;5.60;;;2.38;;
32705;SDS011;19094;50.972;3.538;2022-11-23T15:32:01;8.45;;;3.38;;
32705;SDS011;19094;50.972;3.538;2022-11-23T15:34:44;10.18;;;5.05;;
32705;SDS011;19094;50.972;3.538;2022-11-23T15:37:10;11.43;;;5.28;;
32705;SDS011;19094;50.972;3.538;2022-11-23T15:39:38;7.47;;;3.05;;
32705;SDS011;19094;50.972;3.538;2022-11-23T15:42:04;9.23;;;3.28;;
32705;SDS011;19094;50.972;3.538;2022-11-23T15:44:30;10.85;;;3.22;;
32705;SDS011;19094;50.972;3.538;2022-11-23T15:47:00;8.02;;;2.53;;
32705;SDS011;19094;50.972;3.538;2022-11-23T15:49:30;8.02;;;3.00;;
32705;SDS011;19094;50.972;3.538;2022-11-23T15:52:03;7.25;;;3.45;;
32705;SDS011;19094;50.972;3.538;2022-11-23T15:54:34;8.38;;;2.70;;
32705;SDS011;19094;50.972;3.538;2022-11-23T15:57:01;5.97;;;2.80;;
32705;SDS011;19094;50.972;3.538;2022-11-23T15:59:49;9.65;;;3.35;;
32705;SDS011;19094;50.972;3.538;2022-11-23T16:02:31;11.27;;;3.20;;
32705;SDS011;19094;50.972;3.538;2022-11-23T16:05:12;11.82;;;2.95;;
32705;SDS011;19094;50.972;3.538;2022-11-23T16:07:53;8.73;;;3.50;;
32705;SDS011;19094;50.972;3.538;2022-11-23T16:10:27;12.60;;;3.37;;
32705;SDS011;19094;50.972;3.538;2022-11-23T16:13:31;12.85;;;3.88;;
32705;SDS011;19094;50.972;3.538;2022-11-23T16:15:59;10.30;;;3.45;;
32705;SDS011;19094;50.972;3.538;2022-11-23T16:18:30;10.80;;;4.72;;
32705;SDS011;19094;50.972;3.538;2022-11-23T16:20:57;11.18;;;4.85;;
32705;SDS011;19094;50.972;3.538;2022-11-23T16:23:34;11.88;;;4.22;;
32705;SDS011;19094;50.972;3.538;2022-11-23T16:26:10;10.43;;;4.20;;
32705;SDS011;19094;50.972;3.538;2022-11-23T16:28:37;22.92;;;6.20;;
32705;SDS011;19094;50.972;3.538;2022-11-23T16:31:28;14.63;;;4.78;;
32705;SDS011;19094;50.972;3.538;2022-11-23T16:33:59;14.82;;;5.18;;
32705;SDS011;19094;50.972;3.538;2022-11-23T16:36:25;18.17;;;5.80;;
32705;SDS011;19094;50.972;3.538;2022-11-23T16:38:51;12.32;;;4.70;;
32705;SDS011;19094;50.972;3.538;2022-11-23T16:41:17;20.33;;;7.15;;
32705;SDS011;19094;50.972;3.538;2022-11-23T16:43:44;15.18;;;6.05;;
32705;SDS011;19094;50.972;3.538;2022-11-23T16:46:16;20.58;;;4.90;;
32705;SDS011;19094;50.972;3.538;2022-11-23T16:48:41;17.25;;;6.03;;
32705;SDS011;19094;50.972;3.538;2022-11-23T16:51:09;15.13;;;5.15;;
32705;SDS011;19094;50.972;3.538;2022-11-23T16:53:48;16.10;;;5.10;;